createdAt,value
2023-08-09T00:01:38.343Z,97138.00
2023-08-09T00:04:11.271Z,97131.00
2023-08-09T00:06:38.255Z,97111.00
2023-08-09T00:09:07.249Z,97133.00
2023-08-09T00:11:34.439Z,97138.00
2023-08-09T00:14:01.326Z,97130.00
2023-08-09T00:16:28.279Z,97126.00
2023-08-09T00:18:55.253Z,97116.00
2023-08-09T00:21:22.186Z,97124.00
2023-08-09T00:23:49.020Z,97121.00
2023-08-09T00:26:15.870Z,97116.00
2023-08-09T00:28:44.230Z,97110.00
2023-08-09T00:31:11.751Z,97120.00
2023-08-09T00:33:38.760Z,97110.00
2023-08-09T00:36:05.897Z,97109.00
2023-08-09T00:38:32.825Z,97121.00
2023-08-09T00:41:01.090Z,97110.00
2023-08-09T00:43:28.560Z,97117.00
2023-08-09T00:45:56.377Z,97112.00
2023-08-09T00:48:24.209Z,97113.00
2023-08-09T00:50:51.478Z,97103.00
2023-08-09T00:53:18.552Z,97110.00
2023-08-09T00:55:46.303Z,97105.00
2023-08-09T00:58:13.220Z,97111.00
2023-08-09T01:00:40.255Z,97105.00
2023-08-09T01:03:08.295Z,97088.00
2023-08-09T01:05:51.341Z,97102.00
2023-08-09T01:08:30.860Z,97100.00
2023-08-09T01:11:10.548Z,97089.00
2023-08-09T01:13:41.055Z,97097.00
2023-08-09T01:16:11.526Z,97094.00
2023-08-09T01:18:43.246Z,97101.00
2023-08-09T01:21:11.629Z,97095.00
2023-08-09T01:23:39.640Z,97108.00
2023-08-09T01:26:06.590Z,97099.00
2023-08-09T01:28:33.577Z,97090.00
2023-08-09T01:31:00.619Z,97109.00
2023-08-09T01:33:28.029Z,97109.00
2023-08-09T01:36:03.581Z,97110.00
2023-08-09T01:38:38.876Z,97111.00
2023-08-09T01:41:09.046Z,97086.00
2023-08-09T01:43:36.371Z,97116.00
2023-08-09T01:46:03.815Z,97122.00
2023-08-09T01:48:30.790Z,97115.00
2023-08-09T01:50:59.465Z,97119.00
2023-08-09T01:53:26.455Z,97117.00
2023-08-09T01:55:53.375Z,97129.00
2023-08-09T01:58:20.802Z,97120.00
2023-08-09T02:00:47.715Z,97121.00
2023-08-09T02:03:14.731Z,97123.00
2023-08-09T02:05:42.184Z,97119.00
2023-08-09T02:08:09.067Z,97139.00
2023-08-09T02:10:36.360Z,97124.00
2023-08-09T02:13:04.302Z,97133.00
2023-08-09T02:15:31.427Z,97135.00
2023-08-09T02:17:59.417Z,97130.00
2023-08-09T02:20:26.566Z,97148.00
2023-08-09T02:22:53.541Z,97154.00
2023-08-09T02:25:20.615Z,97167.00
2023-08-09T02:27:50.848Z,97150.00
2023-08-09T02:30:17.706Z,97160.00
2023-08-09T02:32:44.603Z,97158.00
2023-08-09T02:35:11.874Z,97166.00
2023-08-09T02:37:38.988Z,97170.00
2023-08-09T02:40:07.835Z,97173.00
2023-08-09T02:42:35.019Z,97173.00
2023-08-09T02:45:02.170Z,97191.00
2023-08-09T02:47:29.048Z,97183.00
2023-08-09T02:49:55.974Z,97197.00
2023-08-09T02:52:24.000Z,97207.00
2023-08-09T02:54:50.918Z,97209.00
2023-08-09T02:57:17.819Z,97210.00
2023-08-09T02:59:44.816Z,97205.00
2023-08-09T03:02:11.782Z,97202.00
2023-08-09T03:04:38.735Z,97195.00
2023-08-09T03:07:05.930Z,97209.00
2023-08-09T03:09:33.633Z,97203.00
2023-08-09T03:12:00.620Z,97204.00
2023-08-09T03:14:27.537Z,97204.00
2023-08-09T03:16:54.452Z,97205.00
2023-08-09T03:19:22.561Z,97201.00
2023-08-09T03:21:50.293Z,97200.00
2023-08-09T03:24:17.517Z,97215.00
2023-08-09T03:26:45.262Z,97223.00
2023-08-09T03:29:15.056Z,97203.00
2023-08-09T03:31:42.902Z,97200.00
2023-08-09T03:34:11.284Z,97215.00
2023-08-09T03:36:38.190Z,97211.00
2023-08-09T03:39:07.178Z,97202.00
2023-08-09T03:41:34.098Z,97213.00
2023-08-09T03:44:01.042Z,97224.00
2023-08-09T03:46:27.925Z,97238.00
2023-08-09T03:48:55.106Z,97235.00
2023-08-09T03:51:22.131Z,97235.00
2023-08-09T03:53:49.062Z,97236.00
2023-08-09T03:56:15.946Z,97228.00
2023-08-09T03:58:42.885Z,97241.00
2023-08-09T04:01:09.804Z,97222.00
2023-08-09T04:03:36.702Z,97230.00
2023-08-09T04:06:03.914Z,97246.00
2023-08-09T04:08:31.605Z,97248.00
2023-08-09T04:10:59.061Z,97245.00
2023-08-09T04:13:25.994Z,97254.00
2023-08-09T04:15:53.199Z,97252.00
2023-08-09T04:18:20.148Z,97258.00
2023-08-09T04:20:47.069Z,97255.00
2023-08-09T04:23:15.616Z,97254.00
2023-08-09T04:25:42.815Z,97241.00
2023-08-09T04:28:11.696Z,97243.00
2023-08-09T04:30:40.733Z,97285.00
2023-08-09T04:33:07.646Z,97277.00
2023-08-09T04:35:35.028Z,97276.00
2023-08-09T04:38:04.841Z,97262.00
2023-08-09T04:40:33.195Z,97265.00
2023-08-09T04:43:00.225Z,97277.00
2023-08-09T04:45:27.773Z,97292.00
2023-08-09T04:47:54.864Z,97279.00
2023-08-09T04:50:22.697Z,97301.00
2023-08-09T04:52:49.945Z,97306.00
2023-08-09T04:55:17.781Z,97297.00
2023-08-09T04:57:44.689Z,97302.00
2023-08-09T05:00:12.560Z,97301.00
2023-08-09T05:02:40.582Z,97294.00
2023-08-09T05:05:12.316Z,97298.00
2023-08-09T05:07:40.463Z,97284.00
2023-08-09T05:10:10.650Z,97315.00
2023-08-09T05:12:37.872Z,97308.00
2023-08-09T05:15:05.766Z,97299.00
2023-08-09T05:17:32.789Z,97295.00
2023-08-09T05:20:00.377Z,97304.00
2023-08-09T05:22:27.328Z,97307.00
2023-08-09T05:24:54.214Z,97320.00
2023-08-09T05:27:21.348Z,97323.00
2023-08-09T05:29:48.226Z,97316.00
2023-08-09T05:32:15.152Z,97322.00
2023-08-09T05:34:42.113Z,97334.00
2023-08-09T05:37:09.182Z,97331.00
2023-08-09T05:39:36.114Z,97326.00
2023-08-09T05:42:04.155Z,97325.00
2023-08-09T05:44:31.594Z,97328.00
2023-08-09T05:46:58.484Z,97337.00
2023-08-09T05:49:25.640Z,97341.00
2023-08-09T05:51:54.415Z,97337.00
2023-08-09T05:54:21.381Z,97340.00
2023-08-09T05:56:48.408Z,97338.00
2023-08-09T05:59:15.332Z,97350.00
2023-08-09T06:01:42.329Z,97364.00
2023-08-09T06:04:09.717Z,97361.00
2023-08-09T06:06:36.979Z,97355.00
2023-08-09T06:09:06.552Z,97370.00
2023-08-09T06:11:34.087Z,97365.00
2023-08-09T06:14:01.170Z,97378.00
2023-08-09T06:16:28.742Z,97373.00
2023-08-09T06:18:55.721Z,97373.00
2023-08-09T06:21:22.618Z,97388.00
2023-08-09T06:23:49.737Z,97401.00
2023-08-09T06:26:16.623Z,97392.00
2023-08-09T06:28:43.514Z,97392.00
2023-08-09T06:31:10.556Z,97391.00
2023-08-09T06:33:43.696Z,97397.00
2023-08-09T06:36:12.928Z,97393.00
2023-08-09T06:38:39.967Z,97393.00
2023-08-09T06:41:06.837Z,97406.00
2023-08-09T06:43:33.705Z,97408.00
2023-08-09T06:46:02.272Z,97407.00
2023-08-09T06:48:30.859Z,97415.00
2023-08-09T06:51:00.141Z,97414.00
2023-08-09T06:53:28.051Z,97422.00
2023-08-09T06:55:55.166Z,97433.00
2023-08-09T06:58:22.182Z,97420.00
2023-08-09T07:00:49.654Z,97425.00
2023-08-09T07:03:16.732Z,97420.00
2023-08-09T07:05:44.782Z,97440.00
2023-08-09T07:08:12.394Z,97437.00
2023-08-09T07:10:39.470Z,97433.00
2023-08-09T07:13:06.862Z,97435.00
2023-08-09T07:15:34.161Z,97441.00
2023-08-09T07:18:01.500Z,97430.00
2023-08-09T07:20:28.533Z,97441.00
2023-08-09T07:22:55.522Z,97442.00
2023-08-09T07:25:23.083Z,97445.00
2023-08-09T07:27:51.127Z,97445.00
2023-08-09T07:30:19.046Z,97450.00
2023-08-09T07:32:46.697Z,97450.00
2023-08-09T07:35:15.113Z,97463.00
2023-08-09T07:37:44.612Z,97467.00
2023-08-09T07:40:13.556Z,97488.00
2023-08-09T07:42:42.200Z,97476.00
2023-08-09T07:45:13.406Z,97485.00
2023-08-09T07:47:42.494Z,97492.00
2023-08-09T07:50:10.120Z,97478.00
2023-08-09T07:52:37.766Z,97493.00
2023-08-09T07:55:09.330Z,97489.00
2023-08-09T07:57:36.461Z,97483.00
2023-08-09T08:00:18.116Z,97493.00
2023-08-09T08:02:47.766Z,97499.00
2023-08-09T08:05:16.320Z,97488.00
2023-08-09T08:07:46.553Z,97494.00
2023-08-09T08:10:17.688Z,97494.00
2023-08-09T08:12:49.816Z,97499.00
2023-08-09T08:15:19.078Z,97514.00
2023-08-09T08:17:47.905Z,97493.00
2023-08-09T08:20:18.618Z,97510.00
2023-08-09T08:22:51.212Z,97517.00
2023-08-09T08:25:21.011Z,97509.00
2023-08-09T08:27:48.573Z,97510.00
2023-08-09T08:30:19.400Z,97509.00
2023-08-09T08:32:48.209Z,97521.00
2023-08-09T08:35:21.122Z,97509.00
2023-08-09T08:37:54.468Z,97511.00
2023-08-09T08:40:24.564Z,97520.00
2023-08-09T08:42:52.429Z,97533.00
2023-08-09T08:45:20.903Z,97530.00
2023-08-09T08:47:49.205Z,97515.00
2023-08-09T08:50:18.554Z,97532.00
2023-08-09T08:52:49.283Z,97526.00
2023-08-09T08:55:16.703Z,97524.00
2023-08-09T08:57:47.142Z,97522.00
2023-08-09T09:02:49.986Z,97522.00
2023-08-09T09:05:20.267Z,97538.00
2023-08-09T09:07:51.578Z,97538.00
2023-08-09T09:10:20.665Z,97530.00
2023-08-09T09:12:51.982Z,97538.00
2023-08-09T09:15:19.342Z,97534.00
2023-08-09T09:17:47.416Z,97535.00
2023-08-09T09:20:34.966Z,97529.00
2023-08-09T09:23:02.356Z,97528.00
2023-08-09T09:25:29.320Z,97538.00
2023-08-09T09:27:58.499Z,97546.00
2023-08-09T09:30:30.644Z,97540.00
2023-08-09T09:33:06.409Z,97538.00
2023-08-09T09:35:34.785Z,97550.00
2023-08-09T09:38:04.617Z,97551.00
2023-08-09T09:40:37.654Z,97533.00
2023-08-09T09:43:06.892Z,97532.00
2023-08-09T09:45:37.637Z,97543.00
2023-08-09T09:48:05.254Z,97539.00
2023-08-09T09:50:33.455Z,97540.00
2023-08-09T09:53:00.911Z,97538.00
2023-08-09T09:55:30.090Z,97529.00
2023-08-09T09:57:59.441Z,97537.00
2023-08-09T10:00:33.032Z,97539.00
2023-08-09T10:03:08.034Z,97542.00
2023-08-09T10:05:38.405Z,97552.00
2023-08-09T10:08:14.254Z,97557.00
2023-08-09T10:10:45.272Z,97563.00
2023-08-09T10:13:22.692Z,97568.00
2023-08-09T10:15:58.681Z,97555.00
2023-08-09T10:18:36.597Z,97573.00
2023-08-09T10:21:05.110Z,97571.00
2023-08-09T10:23:32.139Z,97574.00
2023-08-09T10:25:59.888Z,97582.00
2023-08-09T10:29:02.545Z,97584.00
2023-08-09T10:31:56.164Z,97579.00
2023-08-09T10:34:36.443Z,97592.00
2023-08-09T10:37:08.523Z,97597.00
2023-08-09T10:39:39.370Z,97602.00
2023-08-09T10:42:15.279Z,97599.00
2023-08-09T10:44:51.112Z,97602.00
2023-08-09T10:47:27.388Z,97617.00
2023-08-09T10:49:56.961Z,97618.00
2023-08-09T10:52:34.109Z,97607.00
2023-08-09T10:55:19.518Z,97606.00
2023-08-09T10:57:51.398Z,97604.00
2023-08-09T11:00:21.797Z,97601.00
2023-08-09T11:02:54.835Z,97606.00
2023-08-09T11:05:23.545Z,97604.00
2023-08-09T11:08:00.527Z,97611.00
2023-08-09T11:10:40.575Z,97602.00
2023-08-09T11:13:14.219Z,97610.00
2023-08-09T11:15:51.674Z,97596.00
2023-08-09T11:18:19.009Z,97607.00
2023-08-09T11:20:46.361Z,97593.00
2023-08-09T11:23:15.512Z,97599.00
2023-08-09T11:25:42.706Z,97601.00
2023-08-09T11:28:14.404Z,97601.00
2023-08-09T11:30:41.920Z,97605.00
2023-08-09T11:33:12.792Z,97603.00
2023-08-09T11:35:46.372Z,97613.00
2023-08-09T11:38:17.470Z,97612.00
2023-08-09T11:40:55.806Z,97622.00
2023-08-09T11:43:23.032Z,97624.00
2023-08-09T11:45:54.154Z,97610.00
2023-08-09T11:48:49.670Z,97638.00
2023-08-09T11:51:22.043Z,97637.00
2023-08-09T11:53:51.856Z,97653.00
2023-08-09T11:56:21.738Z,97655.00
2023-08-09T11:58:53.331Z,97637.00
2023-08-09T12:01:25.644Z,97639.00
2023-08-09T12:04:00.191Z,97648.00
2023-08-09T12:06:51.177Z,97638.00
2023-08-09T12:09:37.005Z,97644.00
2023-08-09T12:12:12.743Z,97649.00
2023-08-09T12:14:49.129Z,97646.00
2023-08-09T12:17:23.571Z,97661.00
2023-08-09T12:19:53.086Z,97667.00
2023-08-09T12:22:20.473Z,97662.00
2023-08-09T12:24:49.730Z,97662.00
2023-08-09T12:27:18.805Z,97668.00
2023-08-09T12:29:45.810Z,97663.00
2023-08-09T12:32:13.317Z,97660.00
2023-08-09T12:34:40.316Z,97657.00
2023-08-09T12:37:07.563Z,97673.00
2023-08-09T12:39:37.228Z,97664.00
2023-08-09T12:42:04.961Z,97678.00
2023-08-09T12:44:33.520Z,97689.00
2023-08-09T12:47:00.742Z,97671.00
2023-08-09T12:49:28.321Z,97676.00
2023-08-09T12:51:55.210Z,97678.00
2023-08-09T12:54:23.023Z,97691.00
2023-08-09T12:56:51.847Z,97687.00
2023-08-09T12:59:21.144Z,97690.00
2023-08-09T13:01:48.261Z,97688.00
2023-08-09T13:04:20.031Z,97684.00
2023-08-09T13:06:47.433Z,97688.00
2023-08-09T13:09:14.454Z,97696.00
2023-08-09T13:11:44.261Z,97696.00
2023-08-09T13:14:11.246Z,97692.00
2023-08-09T13:16:38.346Z,97704.00
2023-08-09T13:19:05.571Z,97693.00
2023-08-09T13:21:32.530Z,97713.00
2023-08-09T13:23:59.563Z,97709.00
2023-08-09T13:26:27.148Z,97698.00
2023-08-09T13:28:54.084Z,97700.00
2023-08-09T13:31:21.152Z,97713.00
2023-08-09T13:33:48.074Z,97711.00
2023-08-09T13:36:15.052Z,97707.00
2023-08-09T13:38:43.039Z,97721.00
2023-08-09T13:41:10.738Z,97698.00
2023-08-09T13:43:38.370Z,97714.00
2023-08-09T13:46:07.588Z,97724.00
2023-08-09T13:48:36.478Z,97714.00
2023-08-09T13:51:04.177Z,97717.00
2023-08-09T13:53:31.199Z,97707.00
2023-08-09T13:56:07.510Z,97708.00
2023-08-09T13:58:39.864Z,97711.00
2023-08-09T14:01:06.879Z,97709.00
2023-08-09T14:03:33.849Z,97706.00
2023-08-09T14:06:04.820Z,97712.00
2023-08-09T14:08:31.791Z,97716.00
2023-08-09T14:10:58.738Z,97716.00
2023-08-09T14:13:25.689Z,97726.00
2023-08-09T14:15:52.771Z,97715.00
2023-08-09T14:18:21.037Z,97715.00
2023-08-09T14:20:48.269Z,97713.00
2023-08-09T14:23:15.352Z,97717.00
2023-08-09T14:25:42.503Z,97705.00
2023-08-09T14:28:09.488Z,97711.00
2023-08-09T14:30:36.689Z,97708.00
2023-08-09T14:33:06.294Z,97702.00
2023-08-09T14:35:33.514Z,97704.00
2023-08-09T14:38:00.425Z,97712.00
2023-08-09T14:40:28.195Z,97710.00
2023-08-09T14:42:55.183Z,97719.00
2023-08-09T14:45:22.363Z,97718.00
2023-08-09T14:47:49.637Z,97700.00
2023-08-09T14:50:16.655Z,97709.00
2023-08-09T14:52:44.207Z,97716.00
2023-08-09T14:55:11.413Z,97719.00
2023-08-09T14:57:38.572Z,97711.00
2023-08-09T15:00:07.335Z,97718.00
2023-08-09T15:02:34.435Z,97714.00
2023-08-09T15:05:01.795Z,97716.00
2023-08-09T15:07:29.538Z,97729.00
2023-08-09T15:09:56.476Z,97718.00
2023-08-09T15:12:23.936Z,97734.00
2023-08-09T15:14:50.885Z,97722.00
2023-08-09T15:17:25.323Z,97733.00
2023-08-09T15:19:54.153Z,97738.00
2023-08-09T15:22:23.262Z,97727.00
2023-08-09T15:24:51.342Z,97746.00
2023-08-09T15:27:20.218Z,97733.00
2023-08-09T15:29:47.914Z,97733.00
2023-08-09T15:32:15.076Z,97747.00
2023-08-09T15:34:42.593Z,97731.00
2023-08-09T15:37:10.687Z,97725.00
2023-08-09T15:39:39.841Z,97732.00
2023-08-09T15:42:17.233Z,97738.00
2023-08-09T15:44:47.361Z,97737.00
2023-08-09T15:47:19.242Z,97739.00
2023-08-09T15:49:48.341Z,97726.00
2023-08-09T15:52:17.591Z,97721.00
2023-08-09T15:54:45.497Z,97729.00
2023-08-09T15:57:12.477Z,97721.00
2023-08-09T15:59:39.327Z,97730.00
2023-08-09T16:02:06.852Z,97735.00
2023-08-09T16:04:33.774Z,97731.00
2023-08-09T16:07:03.056Z,97729.00
2023-08-09T16:09:30.102Z,97730.00
2023-08-09T16:11:57.008Z,97722.00
2023-08-09T16:14:23.865Z,97725.00
2023-08-09T16:16:50.819Z,97729.00
2023-08-09T16:19:18.142Z,97735.00
2023-08-09T16:21:45.098Z,97733.00
2023-08-09T16:24:13.267Z,97731.00
2023-08-09T16:26:40.253Z,97739.00
2023-08-09T16:29:08.426Z,97735.00
2023-08-09T16:31:36.722Z,97747.00
2023-08-09T16:34:03.876Z,97743.00
2023-08-09T16:36:30.803Z,97743.00
2023-08-09T16:38:57.698Z,97735.00
2023-08-09T16:41:24.763Z,97738.00
2023-08-09T16:43:55.425Z,97737.00
2023-08-09T16:46:22.705Z,97735.00
2023-08-09T16:48:53.945Z,97735.00
2023-08-09T16:51:21.449Z,97736.00
2023-08-09T16:53:48.670Z,97733.00
2023-08-09T16:56:15.749Z,97740.00
2023-08-09T16:58:43.013Z,97740.00
2023-08-09T17:01:18.135Z,97751.00
2023-08-09T17:03:45.389Z,97752.00
2023-08-09T17:06:13.971Z,97751.00
2023-08-09T17:08:41.033Z,97742.00
2023-08-09T17:11:08.466Z,97745.00
2023-08-09T17:13:35.443Z,97741.00
2023-08-09T17:16:02.468Z,97752.00
2023-08-09T17:18:29.479Z,97751.00
2023-08-09T17:20:56.407Z,97749.00
2023-08-09T17:23:24.029Z,97738.00
2023-08-09T17:25:52.495Z,97742.00
2023-08-09T17:28:19.566Z,97749.00
2023-08-09T17:30:49.140Z,97741.00
2023-08-09T17:33:17.125Z,97731.00
2023-08-09T17:35:45.973Z,97742.00
2023-08-09T17:38:12.898Z,97742.00
2023-08-09T17:40:42.166Z,97737.00
2023-08-09T17:43:09.175Z,97747.00
2023-08-09T17:45:38.293Z,97752.00
2023-08-09T17:48:06.068Z,97766.00
2023-08-09T17:50:33.175Z,97761.00
2023-08-09T17:53:00.242Z,97755.00
2023-08-09T17:55:27.385Z,97759.00
2023-08-09T17:57:54.307Z,97765.00
2023-08-09T18:00:23.882Z,97761.00
2023-08-09T18:02:52.571Z,97760.00
2023-08-09T18:05:20.229Z,97766.00
2023-08-09T18:07:48.044Z,97768.00
2023-08-09T18:10:17.286Z,97766.00
2023-08-09T18:12:45.058Z,97784.00
2023-08-09T18:15:12.091Z,97777.00
2023-08-09T18:17:40.028Z,97775.00
2023-08-09T18:20:12.109Z,97773.00
2023-08-09T18:22:50.031Z,97786.00
2023-08-09T18:25:20.409Z,97780.00
2023-08-09T18:27:48.903Z,97790.00
2023-08-09T18:30:16.295Z,97801.00
2023-08-09T18:32:43.558Z,97788.00
2023-08-09T18:35:17.933Z,97797.00
2023-08-09T18:37:49.356Z,97786.00
2023-08-09T18:40:17.384Z,97807.00
2023-08-09T18:42:46.754Z,97795.00
2023-08-09T18:45:16.299Z,97794.00
2023-08-09T18:47:43.639Z,97794.00
2023-08-09T18:50:11.928Z,97811.00
2023-08-09T18:52:40.403Z,97808.00
2023-08-09T18:55:10.272Z,97796.00
2023-08-09T18:57:37.561Z,97802.00
2023-08-09T19:00:13.171Z,97819.00
2023-08-09T19:02:43.046Z,97807.00
2023-08-09T19:05:10.255Z,97812.00
2023-08-09T19:07:37.143Z,97817.00
2023-08-09T19:10:04.280Z,97818.00
2023-08-09T19:12:31.535Z,97828.00
2023-08-09T19:14:58.517Z,97814.00
2023-08-09T19:17:25.508Z,97817.00
2023-08-09T19:19:53.303Z,97828.00
2023-08-09T19:22:20.427Z,97832.00
2023-08-09T19:24:47.889Z,97827.00
2023-08-09T19:27:15.465Z,97834.00
2023-08-09T19:29:42.730Z,97841.00
2023-08-09T19:32:09.640Z,97826.00
2023-08-09T19:34:36.539Z,97835.00
2023-08-09T19:37:06.289Z,97826.00
2023-08-09T19:39:34.519Z,97846.00
2023-08-09T19:42:02.306Z,97848.00
2023-08-09T19:44:29.334Z,97843.00
2023-08-09T19:46:57.465Z,97830.00
2023-08-09T19:49:24.477Z,97867.00
2023-08-09T19:51:53.073Z,97862.00
2023-08-09T19:54:20.248Z,97854.00
2023-08-09T19:56:47.484Z,97857.00
2023-08-09T19:59:14.382Z,97867.00
2023-08-09T20:01:41.316Z,97864.00
2023-08-09T20:04:08.193Z,97861.00
2023-08-09T20:06:36.657Z,97852.00
2023-08-09T20:09:06.302Z,97862.00
2023-08-09T20:11:33.495Z,97866.00
2023-08-09T20:14:00.400Z,97862.00
2023-08-09T20:16:28.798Z,97855.00
2023-08-09T20:18:57.592Z,97855.00
2023-08-09T20:21:24.466Z,97860.00
2023-08-09T20:23:51.464Z,97856.00
2023-08-09T20:26:18.514Z,97876.00
2023-08-09T20:28:45.479Z,97869.00
2023-08-09T20:31:13.984Z,97867.00
2023-08-09T20:33:41.340Z,97873.00
2023-08-09T20:36:08.625Z,97867.00
2023-08-09T20:38:35.584Z,97884.00
2023-08-09T20:41:02.490Z,97880.00
2023-08-09T20:43:29.498Z,97883.00
2023-08-09T20:45:56.682Z,97875.00
2023-08-09T20:48:23.619Z,97887.00
2023-08-09T20:50:50.543Z,97881.00
2023-08-09T20:53:17.599Z,97903.00
2023-08-09T20:55:46.399Z,97891.00
2023-08-09T20:58:13.365Z,97895.00
2023-08-09T21:00:42.198Z,97892.00
2023-08-09T21:03:09.728Z,97887.00
2023-08-09T21:05:37.129Z,97883.00
2023-08-09T21:08:04.586Z,97910.00
2023-08-09T21:10:31.524Z,97898.00
2023-08-09T21:12:58.567Z,97900.00
2023-08-09T21:15:25.931Z,97894.00
2023-08-09T21:17:52.906Z,97891.00
2023-08-09T21:20:19.940Z,97898.00
2023-08-09T21:22:46.950Z,97908.00
2023-08-09T21:27:43.940Z,97903.00
2023-08-09T21:30:12.466Z,97902.00
2023-08-09T21:32:39.506Z,97901.00
2023-08-09T21:35:07.768Z,97898.00
2023-08-09T21:37:34.726Z,97903.00
2023-08-09T21:40:01.770Z,97901.00
2023-08-09T21:42:28.645Z,97903.00
2023-08-09T21:44:59.118Z,97893.00
2023-08-09T21:47:26.164Z,97906.00
2023-08-09T21:49:53.136Z,97907.00
2023-08-09T21:52:20.136Z,97912.00
2023-08-09T21:54:47.034Z,97897.00
2023-08-09T21:57:13.997Z,97907.00
2023-08-09T21:59:40.922Z,97899.00
2023-08-09T22:02:07.874Z,97915.00
2023-08-09T22:04:34.833Z,97915.00
2023-08-09T22:07:01.815Z,97917.00
2023-08-09T22:09:30.442Z,97915.00
2023-08-09T22:11:58.456Z,97920.00
2023-08-09T22:14:25.582Z,97916.00
2023-08-09T22:16:54.198Z,97913.00
2023-08-09T22:19:22.022Z,97929.00
2023-08-09T22:24:19.335Z,97929.00
2023-08-09T22:26:46.313Z,97916.00
2023-08-09T22:29:13.276Z,97928.00
2023-08-09T22:31:40.161Z,97924.00
2023-08-09T22:34:07.104Z,97924.00
2023-08-09T22:36:36.545Z,97926.00
2023-08-09T22:39:03.586Z,97919.00
2023-08-09T22:41:30.601Z,97928.00
2023-08-09T22:43:57.549Z,97917.00
2023-08-09T22:46:24.409Z,97926.00
2023-08-09T22:48:51.295Z,97941.00
2023-08-09T22:51:18.583Z,97928.00
2023-08-09T22:53:46.186Z,97925.00
2023-08-09T22:56:15.279Z,97931.00
2023-08-09T22:58:42.324Z,97926.00
2023-08-09T23:01:09.216Z,97918.00
2023-08-09T23:03:36.335Z,97928.00
2023-08-09T23:06:03.375Z,97919.00
2023-08-09T23:08:30.321Z,97921.00
2023-08-09T23:10:57.174Z,97934.00
2023-08-09T23:13:27.292Z,97930.00
2023-08-09T23:15:55.072Z,97915.00
2023-08-09T23:18:21.996Z,97931.00
2023-08-09T23:20:48.983Z,97919.00
2023-08-09T23:23:16.586Z,97939.00
2023-08-09T23:25:43.587Z,97926.00
2023-08-09T23:28:10.566Z,97941.00
2023-08-09T23:30:38.079Z,97954.00
2023-08-09T23:33:06.276Z,97957.00
2023-08-09T23:35:33.675Z,97955.00
2023-08-09T23:38:00.748Z,97963.00
2023-08-09T23:40:27.780Z,97954.00
2023-08-09T23:42:54.746Z,97961.00
2023-08-09T23:45:21.884Z,97959.00
2023-08-09T23:47:50.180Z,97952.00
2023-08-09T23:50:17.489Z,97952.00
2023-08-09T23:52:44.350Z,97947.00
2023-08-09T23:55:11.473Z,97944.00
2023-08-09T23:57:38.444Z,97940.00
